Time;durP1;ratioP1;P1;durP2;ratioP2;P2;SDS_P1;SDS_P2;PMS_P1;PMS_P2;Temp;Humidity;BMP_temperature;BMP_pressure;BME280_temperature;BME280_humidity;BME280_pressure;Samples;Min_cycle;Max_cycle;Signal;HPM_P1;HPM_P2
2022/06/27 00:00:29;;;;;;;4.40;1.80;;;;;15.00;97780.80;;;;110470;1253;42073;-65
2022/06/27 00:03:10;;;;;;;3.80;1.80;;;;;15.00;97775.80;;;;110468;1253;41363;-66
2022/06/27 00:05:40;;;;;;;5.40;2.30;;;;;15.00;97772.60;;;;110380;1254;41140;-65
2022/06/27 00:08:09;;;;;;;4.90;2.10;;;;;15.00;97769.00;;;;110487;1254;42378;-66
2022/06/27 00:10:40;;;;;;;6.10;2.00;;;;;15.00;97762.60;;;;110513;1253;41559;-66
2022/06/27 00:13:10;;;;;;;;;;;;;15.00;97758.80;;;;110519;1254;42114;-65
2022/06/27 00:15:41;;;;;;;9.60;1.90;;;;;14.90;97757.20;;;;110331;1254;41945;-66
2022/06/27 00:18:11;;;;;;;3.80;1.70;;;;;14.90;97760.80;;;;110462;1253;41313;-66
2022/06/27 00:20:42;;;;;;;4.50;2.00;;;;;14.90;97766.00;;;;110508;1253;41652;-68
2022/06/27 00:23:12;;;;;;;6.80;2.60;;;;;14.88;97757.60;;;;110322;1256;41826;-66
2022/06/27 00:25:43;;;;;;;6.00;2.50;;;;;14.90;97757.80;;;;110337;1253;41257;-65
2022/06/27 00:28:13;;;;;;;;;;;;;14.90;97758.60;;;;110370;1254;42032;-65
2022/06/27 00:30:43;;;;;;;5.00;2.20;;;;;14.80;97760.80;;;;110406;1252;41518;-65
2022/06/27 00:33:13;;;;;;;4.60;2.20;;;;;14.74;97761.40;;;;110482;1254;41584;-64
2022/06/27 00:35:44;;;;;;;5.80;2.20;;;;;14.70;97759.00;;;;110417;1254;41185;-65
2022/06/27 00:38:14;;;;;;;5.50;2.10;;;;;14.70;97764.80;;;;110498;1253;41164;-65
2022/06/27 00:40:45;;;;;;;4.70;2.00;;;;;14.70;97765.00;;;;110364;1256;41714;-65
2022/06/27 00:43:15;;;;;;;;;;;;;14.62;97758.00;;;;110503;1253;41276;-66
2022/06/27 00:45:45;;;;;;;3.70;2.00;;;;;14.60;97765.80;;;;110485;1253;43005;-64
2022/06/27 00:48:17;;;;;;;6.90;2.50;;;;;14.60;97763.80;;;;110238;1255;41521;-65
2022/06/27 00:50:48;;;;;;;6.60;2.30;;;;;14.50;97766.20;;;;110318;1256;42007;-65
2022/06/27 00:53:19;;;;;;;6.00;2.30;;;;;14.40;97762.60;;;;110481;1254;41274;-65
2022/06/27 00:55:49;;;;;;;4.40;2.20;;;;;14.40;97764.20;;;;110392;1255;41187;-65
2022/06/27 00:58:20;;;;;;;2.80;1.60;;;;;14.40;97759.20;;;;110523;1253;41658;-66
2022/06/27 01:00:50;;;;;;;3.10;1.80;;;;;14.40;97751.80;;;;110371;1255;41214;-64
2022/06/27 01:03:21;;;;;;;3.40;1.70;;;;;14.40;97755.20;;;;110356;1254;41205;-65
2022/06/27 01:05:51;;;;;;;;;;;;;14.40;97751.80;;;;110320;1254;41416;-66
2022/06/27 01:08:25;;;;;;;5.30;2.10;;;;;14.30;97754.40;;;;110493;1254;41262;-65
2022/06/27 01:10:55;;;;;;;6.40;2.50;;;;;14.30;97757.60;;;;110433;1254;41463;-67
2022/06/27 01:13:25;;;;;;;4.70;2.10;;;;;14.20;97761.60;;;;110419;1254;41158;-66
2022/06/27 01:15:56;;;;;;;4.20;1.90;;;;;14.20;97762.20;;;;110489;1253;41676;-64
2022/06/27 01:18:26;;;;;;;5.70;1.80;;;;;14.20;97767.20;;;;110425;1253;41378;-66
2022/06/27 01:20:56;;;;;;;4.70;1.90;;;;;14.20;97767.20;;;;110390;1254;42083;-65
2022/06/27 01:23:27;;;;;;;5.40;2.30;;;;;14.20;97767.40;;;;110515;1253;42450;-65
2022/06/27 01:25:57;;;;;;;6.80;2.80;;;;;14.14;97773.80;;;;110346;1254;41734;-65
2022/06/27 01:28:27;;;;;;;8.90;2.80;;;;;14.10;97768.60;;;;110455;1254;41277;-65
2022/06/27 01:30:58;;;;;;;7.80;2.80;;;;;14.10;97766.20;;;;110349;1254;41212;-65
2022/06/27 01:33:30;;;;;;;5.90;2.50;;;;;14.10;97759.00;;;;110442;1253;41713;-65
2022/06/27 01:38:53;;;;;;;4.70;2.00;;;;;14.10;97761.60;;;;110436;1253;41200;-64
2022/06/27 01:41:23;;;;;;;4.00;1.90;;;;;14.02;97755.40;;;;110450;1253;41175;-65
2022/06/27 01:43:53;;;;;;;6.70;2.20;;;;;14.00;97753.00;;;;110340;1254;41300;-65
2022/06/27 01:46:25;;;;;;;3.90;2.00;;;;;14.04;97754.80;;;;110461;1253;42410;-64
2022/06/27 01:48:54;;;;;;;5.70;2.50;;;;;14.06;97763.80;;;;110407;1253;41137;-66
2022/06/27 01:51:24;;;;;;;4.80;2.20;;;;;14.00;97758.80;;;;110459;1254;41161;-65
2022/06/27 01:53:54;;;;;;;5.00;2.10;;;;;14.00;97758.80;;;;110460;1253;41221;-65
2022/06/27 01:56:24;;;;;;;4.20;2.10;;;;;13.96;97759.40;;;;110467;1254;41278;-65
2022/06/27 01:58:57;;;;;;;5.00;2.00;;;;;13.94;97763.20;;;;110477;1254;42515;-64
2022/06/27 02:01:27;;;;;;;6.20;2.60;;;;;13.90;97769.00;;;;110347;1254;41907;-65
2022/06/27 02:03:59;;;;;;;5.30;2.40;;;;;13.90;97766.00;;;;110343;1253;41140;-65
2022/06/27 02:06:32;;;;;;;6.00;2.30;;;;;13.86;97764.80;;;;110330;1254;40837;-66
2022/06/27 02:09:04;;;;;;;4.80;2.20;;;;;13.78;97767.80;;;;110409;1254;41255;-65
2022/06/27 02:11:36;;;;;;;4.70;1.80;;;;;13.70;97766.60;;;;110395;1254;41349;-65
2022/06/27 02:14:13;;;;;;;6.90;2.40;;;;;13.70;97763.00;;;;110341;1253;41636;-66
2022/06/27 02:16:45;;;;;;;5.80;2.70;;;;;13.70;97767.00;;;;110409;1255;41267;-64
2022/06/27 02:19:17;;;;;;;5.30;2.40;;;;;13.60;97767.20;;;;110430;1256;41193;-65
2022/06/27 02:21:48;;;;;;;6.40;2.50;;;;;13.60;97773.20;;;;110502;1255;41032;-65
2022/06/27 02:24:18;;;;;;;6.50;2.60;;;;;13.60;97774.60;;;;110461;1253;41272;-65
2022/06/27 02:26:51;;;;;;;3.50;1.90;;;;;13.60;97776.00;;;;110433;1254;41721;-64
2022/06/27 02:29:21;;;;;;;4.40;2.10;;;;;13.60;97780.00;;;;110320;1254;41281;-65
2022/06/27 02:31:52;;;;;;;5.50;2.00;;;;;13.60;97780.20;;;;110453;1254;42129;-65
2022/06/27 02:34:22;;;;;;;4.20;2.00;;;;;13.60;97778.80;;;;110416;1253;41140;-65
2022/06/27 02:36:54;;;;;;;5.10;2.20;;;;;13.60;97780.20;;;;110390;1253;41259;-65
2022/06/27 02:39:25;;;;;;;4.90;2.20;;;;;13.60;97774.80;;;;110521;1253;41712;-65
2022/06/27 02:41:59;;;;;;;4.10;1.90;;;;;13.60;97780.40;;;;110447;1254;41977;-65
2022/06/27 02:44:31;;;;;;;4.80;1.90;;;;;13.60;97781.80;;;;110535;1254;41174;-64
2022/06/27 02:47:02;;;;;;;8.50;2.90;;;;;13.60;97789.00;;;;110279;1253;41171;-65
2022/06/27 02:49:33;;;;;;;8.30;2.90;;;;;13.70;97787.60;;;;110232;1253;42160;-64
2022/06/27 02:52:09;;;;;;;6.20;2.80;;;;;13.70;97792.60;;;;110255;1253;41268;-65
2022/06/27 02:55:11;;;;;;;6.30;2.50;;;;;13.72;97799.20;;;;110422;1255;41576;-65
2022/06/27 02:57:51;;;;;;;7.00;2.60;;;;;13.70;97800.00;;;;110412;1255;41273;-65
2022/06/27 03:00:28;;;;;;;4.80;2.20;;;;;13.70;97804.40;;;;110491;1254;41485;-65
2022/06/27 03:02:59;;;;;;;6.60;2.40;;;;;13.64;97804.00;;;;110456;1253;41580;-64
2022/06/27 03:06:01;;;;;;;6.10;2.30;;;;;13.68;97801.40;;;;110458;1254;41516;-65
2022/06/27 03:08:45;;;;;;;3.80;1.90;;;;;13.68;97802.00;;;;110491;1254;41177;-67
2022/06/27 03:11:18;;;;;;;5.90;2.30;;;;;13.70;97803.60;;;;110501;1253;41193;-65
2022/06/27 03:13:52;;;;;;;7.20;2.60;;;;;13.70;97801.40;;;;110310;1253;41673;-65
2022/06/27 03:16:22;;;;;;;6.50;2.90;;;;;13.60;97802.00;;;;110477;1254;42378;-64
2022/06/27 03:18:53;;;;;;;6.10;2.80;;;;;13.50;97806.60;;;;110358;1254;41153;-65
2022/06/27 03:21:42;;;;;;;7.10;3.00;;;;;13.58;97812.40;;;;110322;1254;41272;-64
2022/06/27 03:24:13;;;;;;;7.70;2.80;;;;;13.60;97814.80;;;;110507;1253;41154;-64
2022/06/27 03:26:43;;;;;;;;;;;;;13.66;97815.40;;;;110281;1253;41271;-65
2022/06/27 03:29:15;;;;;;;6.40;2.20;;;;;13.70;97810.20;;;;110531;1254;41152;-65
2022/06/27 03:31:47;;;;;;;7.10;2.60;;;;;13.80;97811.40;;;;110456;1254;41169;-65
2022/06/27 03:34:16;;;;;;;6.60;2.70;;;;;13.86;97809.80;;;;110362;1255;41955;-65
2022/06/27 03:37:18;;;;;;;5.80;2.80;;;;;13.98;97809.00;;;;110344;1254;41262;-65
2022/06/27 03:39:49;;;;;;;6.30;2.80;;;;;14.00;97813.00;;;;110348;1256;41672;-64
2022/06/27 03:42:19;;;;;;;6.90;2.80;;;;;14.10;97810.20;;;;110273;1256;42043;-64
2022/06/27 03:44:49;;;;;;;8.00;2.80;;;;;14.12;97814.40;;;;110487;1254;41517;-64
2022/06/27 03:47:19;;;;;;;6.20;2.80;;;;;14.20;97811.80;;;;110276;1253;41171;-65
2022/06/27 03:50:09;;;;;;;6.60;2.80;;;;;14.30;97817.40;;;;110470;1253;41949;-65
2022/06/27 03:52:40;;;;;;;7.20;2.70;;;;;14.40;97819.60;;;;110431;1253;41660;-64
2022/06/27 03:55:10;;;;;;;;;;;;;14.48;97824.60;;;;110430;1256;42458;-65
2022/06/27 03:58:01;;;;;;;4.10;2.00;;;;;14.50;97813.20;;;;110464;1254;41946;-65
2022/06/27 04:00:33;;;;;;;6.40;2.70;;;;;14.60;97816.80;;;;110425;1253;41953;-66
2022/06/27 04:03:05;;;;;;;7.10;3.20;;;;;14.70;97821.00;;;;110519;1254;41211;-66
2022/06/27 04:05:42;;;;;;;7.60;3.20;;;;;14.82;97827.00;;;;110435;1253;42406;-66
2022/06/27 04:08:12;;;;;;;8.10;3.20;;;;;14.90;97827.00;;;;110371;1253;41595;-67
2022/06/27 04:10:43;;;;;;;8.40;3.70;;;;;15.00;97831.00;;;;110289;1253;41267;-67
2022/06/27 04:13:14;;;;;;;8.10;3.30;;;;;15.06;97830.80;;;;110410;1255;41358;-65
2022/06/27 04:16:07;;;;;;;6.40;2.50;;;;;15.10;97829.80;;;;110200;1255;41272;-66
2022/06/27 04:19:06;;;;;;;6.20;2.50;;;;;15.20;97829.60;;;;110059;1254;41200;-66
2022/06/27 04:21:55;;;;;;;9.10;2.70;;;;;15.40;97826.00;;;;110493;1253;41257;-67
2022/06/27 04:24:46;;;;;;;7.10;3.00;;;;;15.74;97812.20;;;;110426;1253;41521;-66
2022/06/27 04:27:20;;;;;;;6.70;2.60;;;;;17.16;97794.00;;;;110455;1255;41304;-66
2022/06/27 04:29:54;;;;;;;8.50;3.50;;;;;18.66;97787.00;;;;110340;1256;41262;-66
2022/06/27 04:32:32;;;;;;;6.50;2.80;;;;;19.90;97783.00;;;;110416;1256;41749;-65
2022/06/27 04:35:09;;;;;;;7.40;3.20;;;;;21.16;97782.40;;;;110348;1254;41168;-67
2022/06/27 04:37:44;;;;;;;6.80;2.80;;;;;22.14;97779.80;;;;110315;1253;41146;-66
2022/06/27 04:40:38;;;;;;;5.40;2.60;;;;;23.14;97776.40;;;;110429;1253;41154;-65
2022/06/27 04:43:10;;;;;;;7.00;3.20;;;;;23.84;97776.00;;;;110346;1254;41287;-66
2022/06/27 04:45:40;;;;;;;10.80;2.90;;;;;23.14;97779.00;;;;110255;1254;41263;-65
2022/06/27 04:48:41;;;;;;;11.80;3.00;;;;;23.34;97776.40;;;;109951;1253;41723;-66
2022/06/27 04:51:17;;;;;;;9.50;2.80;;;;;23.60;97780.80;;;;110458;1255;41152;-66
2022/06/27 04:53:48;;;;;;;8.10;2.40;;;;;23.90;97786.00;;;;110519;1253;41166;-66
2022/06/27 04:56:18;;;;;;;5.10;2.50;;;;;24.56;97788.40;;;;110538;1253;41616;-68
2022/06/27 04:58:48;;;;;;;;;;;;;25.14;97787.60;;;;110526;1254;41398;-66
2022/06/27 05:01:18;;;;;;;7.80;2.90;;;;;25.20;97784.40;;;;110526;1252;41664;-66
2022/06/27 05:04:01;;;;;;;4.80;2.20;;;;;25.04;97784.00;;;;110483;1253;41153;-68
2022/06/27 05:06:36;;;;;;;6.50;2.50;;;;;25.90;97790.40;;;;110355;1255;41268;-66
2022/06/27 05:09:08;;;;;;;5.70;2.60;;;;;26.22;97785.40;;;;110380;1253;41162;-66
2022/06/27 05:11:37;;;;;;;5.20;2.10;;;;;26.10;97787.40;;;;110485;1253;42029;-66
2022/06/27 05:14:08;;;;;;;5.10;1.80;;;;;26.78;97790.60;;;;110346;1254;41178;-66
2022/06/27 05:16:47;;;;;;;6.50;2.80;;;;;27.60;97791.20;;;;110485;1253;41260;-66
2022/06/27 05:19:17;;;;;;;5.40;2.20;;;;;27.72;97787.20;;;;110268;1254;41160;-64
2022/06/27 05:21:47;;;;;;;6.80;2.70;;;;;27.84;97784.80;;;;110428;1256;41296;-66
2022/06/27 05:24:18;;;;;;;7.10;2.80;;;;;27.52;97783.40;;;;110466;1255;41310;-67
2022/06/27 05:26:48;;;;;;;6.60;2.30;;;;;27.70;97782.00;;;;110440;1254;41145;-65
2022/06/27 05:29:18;;;;;;;7.10;2.10;;;;;27.28;97790.60;;;;110418;1256;41140;-67
2022/06/27 05:31:47;;;;;;;5.00;2.10;;;;;25.62;97815.80;;;;110453;1253;41133;-67
2022/06/27 05:34:18;;;;;;;4.50;2.00;;;;;24.84;97823.60;;;;110510;1254;41745;-67
2022/06/27 05:36:48;;;;;;;6.30;2.30;;;;;24.08;97824.20;;;;110420;1253;41152;-64
2022/06/27 05:39:18;;;;;;;5.40;2.10;;;;;23.50;97831.20;;;;110434;1253;41538;-66
2022/06/27 05:41:48;;;;;;;6.90;2.20;;;;;23.40;97833.40;;;;110488;1254;41139;-67
2022/06/27 05:44:21;;;;;;;4.60;1.80;;;;;23.40;97831.00;;;;110382;1254;41146;-67
2022/06/27 05:46:51;;;;;;;6.70;2.20;;;;;23.50;97837.80;;;;110447;1253;41206;-66
2022/06/27 05:49:29;;;;;;;5.90;2.10;;;;;23.50;97838.20;;;;110512;1254;41216;-66
2022/06/27 05:51:59;;;;;;;6.10;2.20;;;;;23.50;97840.40;;;;110391;1254;41186;-66
2022/06/27 05:54:29;;;;;;;7.20;2.10;;;;;23.40;97840.20;;;;110469;1254;41200;-66
2022/06/27 05:56:59;;;;;;;4.90;2.10;;;;;23.30;97838.60;;;;110409;1254;41386;-67
2022/06/27 05:59:28;;;;;;;5.20;2.30;;;;;23.76;97825.40;;;;110514;1253;41377;-67
2022/06/27 06:02:01;;;;;;;5.10;2.10;;;;;24.70;97810.60;;;;110422;1253;41176;-67
2022/06/27 06:04:32;;;;;;;12.30;2.60;;;;;25.34;97810.80;;;;110562;1253;41193;-67
2022/06/27 06:07:03;;;;;;;5.50;2.00;;;;;26.20;97808.00;;;;110480;1255;41190;-68
2022/06/27 06:09:33;;;;;;;7.10;2.20;;;;;26.70;97808.60;;;;110375;1253;42389;-65
2022/06/27 06:12:03;;;;;;;5.20;1.70;;;;;27.42;97814.00;;;;110518;1253;41944;-69
2022/06/27 06:14:36;;;;;;;4.80;1.90;;;;;28.20;97814.00;;;;110587;1253;40782;-67
2022/06/27 06:17:06;;;;;;;3.30;1.70;;;;;29.12;97813.00;;;;110470;1256;42246;-68
2022/06/27 06:19:37;;;;;;;5.60;2.20;;;;;29.94;97813.00;;;;110455;1256;42270;-68
2022/06/27 06:22:08;;;;;;;4.40;1.80;;;;;30.22;97811.80;;;;110590;1255;41163;-67
2022/06/27 06:24:37;;;;;;;5.30;2.20;;;;;30.30;97812.80;;;;110574;1256;41199;-68
2022/06/27 06:27:09;;;;;;;4.30;1.90;;;;;30.22;97813.60;;;;110601;1254;41193;-67
2022/06/27 06:29:40;;;;;;;4.70;2.10;;;;;30.14;97809.00;;;;110745;1253;41174;-68
2022/06/27 06:32:11;;;;;;;4.30;1.90;;;;;30.40;97811.40;;;;110687;1253;41185;-68
2022/06/27 06:34:42;;;;;;;7.40;2.60;;;;;31.00;97807.80;;;;110611;1253;41157;-67
2022/06/27 06:37:11;;;;;;;;;;;;;30.96;97806.20;;;;110434;1253;41417;-67
2022/06/27 06:39:42;;;;;;;3.80;1.90;;;;;30.88;97804.60;;;;110596;1253;41212;-67
2022/06/27 06:42:11;;;;;;;3.80;1.70;;;;;31.30;97810.80;;;;110609;1254;41769;-68
2022/06/27 06:44:58;;;;;;;5.50;2.00;;;;;32.04;97814.60;;;;110614;1253;42016;-67
2022/06/27 06:47:47;;;;;;;3.50;1.90;;;;;32.70;97812.20;;;;110467;1253;41262;-67
2022/06/27 06:50:18;;;;;;;7.80;1.90;;;;;33.00;97811.00;;;;110513;1253;41272;-68
2022/06/27 06:52:49;;;;;;;5.70;2.00;;;;;32.96;97814.00;;;;110522;1253;41741;-68
2022/06/27 06:55:24;;;;;;;5.10;1.90;;;;;33.00;97815.00;;;;110435;1253;41243;-68
2022/06/27 06:57:56;;;;;;;5.60;2.30;;;;;32.80;97817.00;;;;110635;1253;41255;-67
2022/06/27 07:00:25;;;;;;;7.50;2.20;;;;;31.96;97823.40;;;;110347;1252;41265;-67
2022/06/27 07:02:55;;;;;;;10.50;2.80;;;;;31.60;97828.40;;;;110464;1253;41162;-68
2022/06/27 07:05:25;;;;;;;10.00;2.70;;;;;31.30;97832.20;;;;110440;1253;41264;-67
2022/06/27 07:07:54;;;;;;;6.50;2.70;;;;;31.20;97835.60;;;;110627;1253;41139;-68
2022/06/27 07:10:25;;;;;;;8.80;2.60;;;;;30.22;97839.60;;;;110472;1253;41201;-68
2022/06/27 07:12:54;;;;;;;10.30;2.90;;;;;30.22;97842.60;;;;110280;1256;41207;-67
2022/06/27 07:15:24;;;;;;;6.30;2.50;;;;;29.50;97843.40;;;;110609;1253;41186;-67
2022/06/27 07:17:53;;;;;;;6.40;2.30;;;;;28.40;97850.20;;;;110673;1252;41153;-68
2022/06/27 07:20:24;;;;;;;7.60;2.50;;;;;27.40;97851.40;;;;110641;1253;41178;-67
2022/06/27 07:22:54;;;;;;;5.50;2.20;;;;;26.46;97853.80;;;;110633;1253;41609;-67
2022/06/27 07:25:23;;;;;;;4.60;2.20;;;;;26.02;97856.80;;;;110679;1252;41149;-68
2022/06/27 07:27:52;;;;;;;8.00;2.60;;;;;26.20;97861.80;;;;110465;1253;408051;-68
2022/06/27 07:30:21;;;;;;;7.80;2.60;;;;;26.20;97857.80;;;;110742;1252;41820;-67
2022/06/27 07:32:51;;;;;;;4.30;2.00;;;;;25.84;97860.80;;;;110699;1253;41177;-67
2022/06/27 07:35:20;;;;;;;9.20;2.30;;;;;25.50;97860.60;;;;110650;1253;41189;-68
2022/06/27 07:37:49;;;;;;;6.80;2.50;;;;;25.26;97858.40;;;;110673;1253;41158;-67
2022/06/27 07:40:20;;;;;;;6.10;2.40;;;;;25.00;97862.80;;;;110645;1253;42424;-69
2022/06/27 07:42:49;;;;;;;;;;;;;24.80;97861.20;;;;110701;1254;41852;-69
2022/06/27 07:45:23;;;;;;;7.80;2.50;;;;;25.00;97861.20;;;;110638;1251;41600;-69
2022/06/27 07:47:54;;;;;;;7.90;2.60;;;;;24.90;97862.20;;;;110668;1253;41267;-69
2022/06/27 07:50:41;;;;;;;7.70;2.50;;;;;25.10;97858.80;;;;110646;1253;41181;-69
2022/06/27 07:53:12;;;;;;;9.00;2.20;;;;;25.10;97861.80;;;;110686;1253;41261;-69
2022/06/27 07:55:56;;;;;;;5.80;2.50;;;;;25.20;97863.00;;;;110480;1255;41371;-68
2022/06/27 07:58:33;;;;;;;6.10;2.60;;;;;25.20;97860.20;;;;110502;1253;41621;-69
2022/06/27 08:01:08;;;;;;;9.20;3.20;;;;;25.30;97855.40;;;;110638;1253;41613;-69
2022/06/27 08:03:42;;;;;;;7.90;3.00;;;;;25.40;97856.80;;;;110638;1253;41411;-68
2022/06/27 08:06:21;;;;;;;9.10;3.00;;;;;25.40;97856.60;;;;110446;1253;42131;-68
2022/06/27 08:09:02;;;;;;;7.90;3.20;;;;;25.50;97856.80;;;;110494;1255;41394;-68
2022/06/27 08:11:34;;;;;;;9.60;3.30;;;;;25.40;97854.20;;;;110465;1253;40758;-69
2022/06/27 08:14:09;;;;;;;7.30;3.10;;;;;25.40;97850.00;;;;110328;1253;41267;-68
2022/06/27 08:16:40;;;;;;;7.90;2.80;;;;;25.70;97848.20;;;;110645;1256;41332;-69
2022/06/27 08:19:10;;;;;;;5.40;2.10;;;;;26.08;97848.60;;;;110579;1254;41336;-71
2022/06/27 08:21:41;;;;;;;9.70;2.90;;;;;26.50;97844.20;;;;110623;1253;41273;-68
2022/06/27 08:24:16;;;;;;;6.90;2.50;;;;;26.58;97847.40;;;;110531;1253;41272;-68
2022/06/27 08:26:47;;;;;;;8.10;2.70;;;;;26.82;97847.40;;;;110706;1253;41149;-68
2022/06/27 08:29:16;;;;;;;4.60;2.20;;;;;27.10;97847.60;;;;110689;1253;41163;-70
2022/06/27 08:31:46;;;;;;;6.90;2.60;;;;;27.40;97842.60;;;;110667;1253;41373;-69
2022/06/27 08:34:16;;;;;;;4.90;2.10;;;;;27.42;97844.40;;;;110785;1253;41178;-69
2022/06/27 08:36:45;;;;;;;5.20;2.10;;;;;27.44;97840.60;;;;110666;1253;42482;-69
2022/06/27 08:39:16;;;;;;;4.80;1.90;;;;;27.90;97842.60;;;;110502;1256;41948;-67
2022/06/27 08:41:46;;;;;;;4.90;2.00;;;;;28.26;97841.20;;;;110592;1254;41151;-69
2022/06/27 08:44:16;;;;;;;8.40;3.00;;;;;28.60;97842.60;;;;110550;1253;41279;-69
2022/06/27 08:46:46;;;;;;;8.50;2.70;;;;;28.70;97828.20;;;;110598;1253;41279;-68
2022/06/27 08:49:16;;;;;;;9.90;3.30;;;;;28.70;97831.40;;;;110666;1253;42067;-69
2022/06/27 08:51:45;;;;;;;8.10;2.90;;;;;28.76;97830.60;;;;110500;1256;41145;-69
2022/06/27 08:54:14;;;;;;;7.80;3.30;;;;;29.00;97827.20;;;;110651;1253;41664;-69
2022/06/27 08:56:43;;;;;;;10.30;3.70;;;;;29.20;97830.40;;;;110674;1253;41139;-69
2022/06/27 08:59:12;;;;;;;16.50;3.30;;;;;29.10;97830.60;;;;110735;1253;41320;-70
2022/06/27 09:01:47;;;;;;;8.40;3.00;;;;;28.48;97831.20;;;;110618;1254;41441;-69
2022/06/27 09:04:16;;;;;;;7.00;2.80;;;;;28.68;97827.60;;;;110663;1253;41398;-69
2022/06/27 09:06:45;;;;;;;5.00;2.00;;;;;29.10;97832.00;;;;110772;1251;40918;-68
2022/06/27 09:09:15;;;;;;;5.00;2.00;;;;;29.20;97829.60;;;;110695;1252;41267;-70
2022/06/27 09:11:49;;;;;;;7.40;2.40;;;;;29.38;97833.60;;;;110609;1253;42462;-70
2022/06/27 09:14:51;;;;;;;5.40;2.30;;;;;30.02;97829.00;;;;110652;1253;41271;-71
2022/06/27 09:17:20;;;;;;;9.60;3.10;;;;;30.48;97821.20;;;;110109;1259;41197;-68
2022/06/27 09:19:53;;;;;;;8.90;2.90;;;;;30.22;97821.20;;;;110058;1259;41260;-69
2022/06/27 09:22:25;;;;;;;6.00;2.40;;;;;29.62;97825.60;;;;110122;1259;42588;-70
2022/06/27 09:25:03;;;;;;;6.10;2.30;;;;;29.42;97822.40;;;;110199;1259;41174;-68
2022/06/27 09:27:52;;;;;;;4.90;1.90;;;;;29.36;97815.60;;;;110094;1260;40916;-68
2022/06/27 09:30:23;;;;;;;5.20;2.00;;;;;29.88;97811.00;;;;110245;1259;41143;-68
2022/06/27 09:33:00;;;;;;;7.20;2.00;;;;;30.30;97808.80;;;;110093;1260;41791;-69
2022/06/27 09:35:34;;;;;;;4.40;2.00;;;;;30.70;97805.80;;;;109973;1260;41188;-69
2022/06/27 09:38:04;;;;;;;4.10;1.90;;;;;30.80;97801.40;;;;110031;1260;40996;-69
2022/06/27 09:40:35;;;;;;;4.30;1.80;;;;;30.36;97805.80;;;;109727;1261;41185;-69
2022/06/27 09:43:08;;;;;;;4.50;2.10;;;;;29.88;97808.00;;;;109962;1259;41334;-69
2022/06/27 09:45:38;;;;;;;7.70;1.90;;;;;29.80;97806.60;;;;110043;1259;42219;-69
2022/06/27 09:48:18;;;;;;;4.30;1.80;;;;;29.66;97793.40;;;;109997;1260;41164;-70
2022/06/27 09:50:48;;;;;;;5.80;1.80;;;;;30.02;97796.40;;;;110162;1259;41164;-70
2022/06/27 09:53:18;;;;;;;4.80;1.80;;;;;30.50;97787.40;;;;110164;1254;41149;-69
2022/06/27 09:55:48;;;;;;;9.00;2.00;;;;;31.58;97782.00;;;;110622;1254;41829;-69
2022/06/27 09:58:17;;;;;;;9.80;2.30;;;;;32.48;97783.60;;;;110465;1255;41156;-70
2022/06/27 10:00:48;;;;;;;3.10;1.60;;;;;32.90;97777.00;;;;110588;1253;41297;-69
2022/06/27 10:03:17;;;;;;;5.80;1.70;;;;;32.70;97782.00;;;;110336;1256;41158;-69
2022/06/27 10:05:47;;;;;;;7.40;1.90;;;;;33.26;97777.20;;;;110456;1255;41187;-68
2022/06/27 10:08:16;;;;;;;7.60;2.10;;;;;34.18;97776.40;;;;110508;1256;41170;-69
2022/06/27 10:11:00;;;;;;;2.10;1.50;;;;;34.12;97777.20;;;;110469;1256;41162;-70
2022/06/27 10:13:29;;;;;;;5.20;1.90;;;;;34.32;97771.80;;;;110645;1254;41257;-68
2022/06/27 10:15:59;;;;;;;5.70;2.00;;;;;34.58;97765.80;;;;110595;1253;41254;-70
2022/06/27 10:18:30;;;;;;;;;;;;;34.50;97760.40;;;;110384;1257;41166;-68
2022/06/27 10:21:26;;;;;;;8.10;1.70;;;;;34.38;97757.60;;;;110653;1256;42866;-70
2022/06/27 10:24:24;;;;;;;4.00;1.70;;;;;34.00;97758.40;;;;110535;1253;41156;-70
2022/06/27 10:26:55;;;;;;;4.80;1.70;;;;;33.74;97755.80;;;;110580;1256;41547;-69
2022/06/27 10:29:30;;;;;;;5.90;1.90;;;;;33.60;97752.60;;;;110705;1253;41144;-67
2022/06/27 10:32:04;;;;;;;5.30;2.00;;;;;33.36;97750.20;;;;110632;1253;41598;-70
2022/06/27 10:34:48;;;;;;;5.40;2.10;;;;;32.68;97751.80;;;;110538;1256;42447;-67
2022/06/27 10:37:26;;;;;;;4.50;1.70;;;;;32.26;97756.40;;;;110526;1255;41277;-69
2022/06/27 10:40:20;;;;;;;3.60;1.60;;;;;31.80;97749.60;;;;110548;1253;41180;-70
2022/06/27 10:42:53;;;;;;;5.30;1.80;;;;;31.80;97752.00;;;;110555;1255;42199;-70
2022/06/27 10:45:28;;;;;;;3.40;1.70;;;;;31.70;97751.40;;;;110660;1255;41268;-70
2022/06/27 10:48:01;;;;;;;5.50;1.80;;;;;31.42;97746.60;;;;110622;1255;41154;-69
2022/06/27 10:50:40;;;;;;;5.40;1.80;;;;;31.62;97744.40;;;;110612;1254;41211;-69
2022/06/27 10:53:19;;;;;;;4.30;1.90;;;;;32.08;97741.00;;;;110546;1254;41133;-69
2022/06/27 10:55:48;;;;;;;4.00;1.70;;;;;32.28;97740.80;;;;110622;1253;41152;-69
2022/06/27 10:58:29;;;;;;;3.30;1.70;;;;;32.12;97742.80;;;;110642;1254;41890;-69
2022/06/27 11:01:27;;;;;;;6.50;1.60;;;;;32.30;97736.20;;;;110533;1254;41331;-69
2022/06/27 11:03:58;;;;;;;2.20;1.50;;;;;32.46;97731.00;;;;110418;1255;41397;-69
2022/06/27 11:06:27;;;;;;;4.60;1.70;;;;;32.44;97727.60;;;;110546;1254;41263;-69
2022/06/27 11:08:56;;;;;;;4.50;1.70;;;;;32.96;97725.40;;;;110638;1253;41746;-68
2022/06/27 11:11:27;;;;;;;5.10;1.80;;;;;32.80;97720.60;;;;110618;1253;41678;-69
2022/06/27 11:13:59;;;;;;;3.10;1.60;;;;;33.42;97711.80;;;;110673;1253;41629;-68
2022/06/27 11:16:32;;;;;;;10.80;2.00;;;;;33.52;97720.20;;;;110628;1253;41161;-69
2022/06/27 11:19:04;;;;;;;2.80;1.50;;;;;33.00;97723.00;;;;110598;1254;41144;-69
2022/06/27 11:21:35;;;;;;;2.70;1.50;;;;;32.72;97716.00;;;;110618;1253;41196;-68
2022/06/27 11:24:06;;;;;;;3.70;1.60;;;;;33.28;97718.00;;;;110625;1255;41858;-69
2022/06/27 11:26:38;;;;;;;4.40;1.70;;;;;33.88;97710.60;;;;110579;1253;41134;-69
2022/06/27 11:32:03;;;;;;;3.50;1.50;;;;;34.86;97707.20;;;;110550;1255;41724;-69
2022/06/27 11:34:43;;;;;;;2.60;1.50;;;;;34.86;97709.60;;;;110564;1253;41627;-67
2022/06/27 11:37:22;;;;;;;3.50;1.60;;;;;34.10;97711.00;;;;110546;1253;41150;-69
2022/06/27 11:40:04;;;;;;;5.10;1.70;;;;;33.70;97712.80;;;;110543;1255;41258;-69
2022/06/27 11:42:35;;;;;;;4.00;1.70;;;;;33.74;97700.80;;;;110425;1256;41157;-70
2022/06/27 11:45:10;;;;;;;5.40;1.70;;;;;34.00;97692.20;;;;110488;1255;41398;-68
2022/06/27 11:47:42;;;;;;;4.50;1.60;;;;;34.22;97687.60;;;;110604;1254;41176;-69
2022/06/27 11:50:16;;;;;;;3.40;1.50;;;;;34.34;97687.80;;;;110506;1256;41363;-69
2022/06/27 11:52:48;;;;;;;3.60;1.50;;;;;35.50;97689.20;;;;110619;1253;41169;-68
2022/06/27 11:55:24;;;;;;;2.10;1.40;;;;;36.60;97687.80;;;;110688;1253;41158;-68
2022/06/27 11:57:57;;;;;;;1.90;1.40;;;;;37.14;97679.80;;;;110550;1254;42232;-68
2022/06/27 12:00:31;;;;;;;2.70;1.40;;;;;37.32;97675.00;;;;110582;1253;41258;-69
2022/06/27 12:03:10;;;;;;;2.50;1.30;;;;;37.86;97668.40;;;;110575;1255;41287;-69
2022/06/27 12:05:40;;;;;;;2.00;1.30;;;;;38.50;97671.60;;;;110618;1253;41154;-67
2022/06/27 12:08:11;;;;;;;4.80;1.20;;;;;38.68;97668.40;;;;110443;1256;41573;-68
2022/06/27 12:13:36;;;;;;;3.10;1.60;;;;;36.86;97672.20;;;;110611;1254;41157;-70
2022/06/27 12:16:07;;;;;;;3.50;1.50;;;;;36.64;97674.60;;;;110650;1253;41197;-70
2022/06/27 12:18:41;;;;;;;5.00;1.50;;;;;35.36;97676.80;;;;110666;1253;41212;-70
2022/06/27 12:21:10;;;;;;;3.40;1.30;;;;;34.46;97679.00;;;;110576;1254;41155;-69
2022/06/27 12:23:40;;;;;;;2.70;1.20;;;;;33.70;97675.20;;;;110663;1253;41148;-69
2022/06/27 12:26:09;;;;;;;3.80;1.50;;;;;33.50;97674.80;;;;110569;1255;41517;-69
2022/06/27 12:28:42;;;;;;;3.60;1.70;;;;;33.24;97675.00;;;;110419;1256;41162;-69
2022/06/27 12:31:11;;;;;;;3.10;1.50;;;;;32.90;97676.20;;;;110559;1255;41154;-70
2022/06/27 12:33:40;;;;;;;2.60;1.40;;;;;32.70;97676.00;;;;110598;1253;42285;-69
2022/06/27 12:36:09;;;;;;;3.10;1.60;;;;;32.70;97681.20;;;;110610;1254;42348;-69
2022/06/27 12:38:38;;;;;;;3.50;1.70;;;;;32.72;97680.60;;;;110630;1253;41149;-71
2022/06/27 12:41:14;;;;;;;3.10;1.60;;;;;32.90;97681.80;;;;110490;1256;41289;-68
2022/06/27 12:43:47;;;;;;;3.60;1.70;;;;;32.90;97684.40;;;;110644;1253;41421;-69
2022/06/27 12:46:17;;;;;;;5.40;1.90;;;;;32.90;97679.40;;;;110640;1254;41892;-69
2022/06/27 12:48:47;;;;;;;4.00;1.80;;;;;32.90;97678.00;;;;110795;1253;41295;-71